METAR Data
IDs: Format: Raw Decoded Include TAF

Data at: 0230 UTC 19 Oct 2021

KADH 190215Z AUTO 15004KT 10SM CLR 16/06 A3003 RMK AO2